createdAt,value
2023-03-28T00:01:14.093Z,99974.31
2023-03-28T00:03:44.204Z,99964.69
2023-03-28T00:06:17.517Z,99970.78
2023-03-28T00:08:47.704Z,99964.50
2023-03-28T00:11:20.215Z,99965.75
2023-03-28T00:13:50.354Z,99962.56
2023-03-28T00:16:18.952Z,99958.13
2023-03-28T00:18:51.215Z,99957.19
2023-03-28T00:21:24.034Z,99946.28
2023-03-28T00:23:54.505Z,99949.72
2023-03-28T00:26:27.152Z,99946.75
2023-03-28T00:28:56.129Z,99938.06
2023-03-28T00:31:25.247Z,99943.41
2023-03-28T00:33:55.756Z,99947.13
2023-03-28T00:36:27.270Z,99941.91
2023-03-28T00:38:56.298Z,99934.28
2023-03-28T00:41:27.244Z,99927.28
2023-03-28T00:43:57.093Z,99928.22
2023-03-28T00:46:31.907Z,99928.31
2023-03-28T00:49:06.011Z,99932.72
2023-03-28T00:51:39.812Z,99933.53
2023-03-28T00:54:12.229Z,99939.41
2023-03-28T00:56:45.489Z,99916.66
2023-03-28T00:59:18.453Z,99933.34
2023-03-28T01:01:48.193Z,99934.81
2023-03-28T01:04:22.500Z,99935.00
2023-03-28T01:06:55.014Z,99928.78
2023-03-28T01:09:24.905Z,99933.13
2023-03-28T01:11:55.739Z,99944.44
2023-03-28T01:14:27.924Z,99934.19
2023-03-28T01:16:57.972Z,99929.78
2023-03-28T01:19:43.010Z,99921.97
2023-03-28T01:22:57.055Z,99936.06
2023-03-28T01:25:56.650Z,99926.34
2023-03-28T01:28:45.925Z,99915.81
2023-03-28T01:31:44.082Z,99916.66
2023-03-28T01:34:39.547Z,99924.22
2023-03-28T01:37:23.971Z,99919.72
2023-03-28T01:40:07.837Z,99910.22
2023-03-28T01:42:45.846Z,99908.56
2023-03-28T01:45:19.841Z,99891.03
2023-03-28T01:47:55.135Z,99910.97
2023-03-28T01:50:29.401Z,99902.00
2023-03-28T01:53:08.003Z,99907.75
2023-03-28T01:55:41.955Z,99907.75
2023-03-28T01:58:20.093Z,99910.06
2023-03-28T02:00:54.744Z,99908.09
2023-03-28T02:03:33.187Z,99910.38
2023-03-28T02:06:02.946Z,99918.88
2023-03-28T02:08:38.331Z,99906.75
2023-03-28T02:11:07.589Z,99899.66
2023-03-28T02:13:42.407Z,99903.00
2023-03-28T02:16:13.459Z,99902.16
2023-03-28T02:18:48.662Z,99903.75
2023-03-28T02:21:21.083Z,99898.41
2023-03-28T02:23:53.775Z,99905.69
2023-03-28T02:26:24.190Z,99904.88
2023-03-28T02:28:57.055Z,99921.56
2023-03-28T02:31:26.551Z,99910.50
2023-03-28T02:33:56.169Z,99913.00
2023-03-28T02:36:48.393Z,99907.78
2023-03-28T02:39:51.510Z,99913.84
2023-03-28T02:42:49.328Z,99925.09
2023-03-28T02:45:33.929Z,99912.72
2023-03-28T02:48:13.320Z,99919.59
2023-03-28T02:50:49.076Z,99919.59
2023-03-28T02:53:27.489Z,99908.22
2023-03-28T02:56:02.519Z,99915.13
2023-03-28T02:58:37.864Z,99918.25
2023-03-28T03:01:07.756Z,99920.88
2023-03-28T03:03:37.784Z,99918.06
2023-03-28T03:06:08.224Z,99916.38
2023-03-28T03:08:37.342Z,99923.28
2023-03-28T03:11:07.973Z,99915.53
2023-03-28T03:13:36.653Z,99919.72
2023-03-28T03:16:06.286Z,99906.97
2023-03-28T03:18:35.163Z,99920.75
2023-03-28T03:21:03.654Z,99927.75
2023-03-28T03:23:32.212Z,99920.66
2023-03-28T03:26:01.042Z,99932.66
2023-03-28T03:28:31.865Z,99932.56
2023-03-28T03:31:00.427Z,99930.38
2023-03-28T03:33:30.566Z,99942.09
2023-03-28T03:36:01.035Z,99934.25
2023-03-28T03:38:29.626Z,99927.03
2023-03-28T03:40:58.374Z,99938.53
2023-03-28T03:43:28.048Z,99939.34
2023-03-28T03:46:00.656Z,99935.00
2023-03-28T03:48:29.617Z,99927.16
2023-03-28T03:50:58.164Z,99938.34
2023-03-28T03:53:26.622Z,99927.88
2023-03-28T03:55:55.263Z,99925.47
2023-03-28T03:58:23.806Z,99937.47
2023-03-28T04:00:53.216Z,99921.41
2023-03-28T04:03:25.137Z,99944.38
2023-03-28T04:05:58.510Z,99938.34
2023-03-28T04:08:27.378Z,99945.44
2023-03-28T04:10:55.966Z,99946.16
2023-03-28T04:13:24.556Z,99933.59
2023-03-28T04:15:53.301Z,99947.00
2023-03-28T04:18:23.373Z,99943.56
2023-03-28T04:20:55.520Z,99968.19
2023-03-28T04:23:26.094Z,99972.75
2023-03-28T04:25:56.235Z,99983.03
2023-03-28T04:28:27.983Z,99981.41
2023-03-28T04:30:59.710Z,99978.41
2023-03-28T04:33:34.096Z,99979.66
2023-03-28T04:36:03.191Z,99981.13
2023-03-28T04:38:36.492Z,99963.50
2023-03-28T04:41:08.495Z,99989.66
2023-03-28T04:43:37.083Z,99993.88
2023-03-28T04:46:05.785Z,100002.50
2023-03-28T04:48:35.993Z,100008.38
2023-03-28T04:51:04.747Z,99995.19
2023-03-28T04:53:33.284Z,100021.09
2023-03-28T04:56:02.021Z,100018.28
2023-03-28T04:58:31.044Z,100018.84
2023-03-28T05:01:03.459Z,100038.25
2023-03-28T05:03:32.279Z,100047.94
2023-03-28T05:06:02.282Z,100045.25
2023-03-28T05:08:33.194Z,100061.84
2023-03-28T05:11:01.928Z,100065.63
2023-03-28T05:13:30.786Z,100063.13
2023-03-28T05:15:59.296Z,100072.53
2023-03-28T05:18:28.159Z,100085.38
2023-03-28T05:20:56.758Z,100070.03
2023-03-28T05:23:26.895Z,100079.34
2023-03-28T05:25:56.269Z,100082.69
2023-03-28T05:28:25.064Z,100099.63
2023-03-28T05:30:53.490Z,100108.84
2023-03-28T05:33:22.026Z,100106.81
2023-03-28T05:35:50.526Z,100113.50
2023-03-28T05:38:19.087Z,100112.31
2023-03-28T05:40:49.768Z,100113.69
2023-03-28T05:43:18.559Z,100113.50
2023-03-28T05:45:48.424Z,100105.13
2023-03-28T05:48:17.051Z,100124.50
2023-03-28T05:50:46.430Z,100114.44
2023-03-28T05:53:15.034Z,100122.06
2023-03-28T05:55:43.840Z,100145.47
2023-03-28T05:58:14.216Z,100152.09
2023-03-28T06:00:45.555Z,100153.94
2023-03-28T06:03:17.320Z,100149.84
2023-03-28T06:05:46.930Z,100161.94
2023-03-28T06:08:17.056Z,100172.31
2023-03-28T06:10:45.964Z,100170.38
2023-03-28T06:13:16.670Z,100166.81
2023-03-28T06:15:48.707Z,100175.59
2023-03-28T06:18:17.399Z,100178.00
2023-03-28T06:20:46.116Z,100172.19
2023-03-28T06:23:14.683Z,100185.09
2023-03-28T06:25:47.588Z,100188.25
2023-03-28T06:28:21.486Z,100192.38
2023-03-28T06:30:51.168Z,100191.44
2023-03-28T06:33:19.881Z,100190.38
2023-03-28T06:35:48.836Z,100210.81
2023-03-28T06:38:17.511Z,100211.75
2023-03-28T06:40:46.389Z,100219.94
2023-03-28T06:43:16.704Z,100229.47
2023-03-28T06:45:45.285Z,100226.66
2023-03-28T06:48:13.762Z,100211.38
2023-03-28T06:50:42.251Z,100245.50
2023-03-28T06:53:10.791Z,100240.91
2023-03-28T06:55:48.454Z,100250.34
2023-03-28T06:58:18.499Z,100251.47
2023-03-28T07:00:47.193Z,100246.31
2023-03-28T07:03:16.581Z,100254.25
2023-03-28T07:05:45.797Z,100253.50
2023-03-28T07:08:15.225Z,100251.28
2023-03-28T07:10:44.386Z,100267.13
2023-03-28T07:13:14.280Z,100284.28
2023-03-28T07:15:44.444Z,100284.47
2023-03-28T07:18:12.944Z,100273.53
2023-03-28T07:20:43.039Z,100282.97
2023-03-28T07:23:14.200Z,100296.03
2023-03-28T07:25:42.762Z,100298.34
2023-03-28T07:28:11.268Z,100306.75
2023-03-28T07:30:39.880Z,100302.06
2023-03-28T07:33:17.373Z,100292.28
2023-03-28T07:35:48.535Z,100304.81
2023-03-28T07:38:17.106Z,100302.00
2023-03-28T07:40:45.917Z,100301.78
2023-03-28T07:43:14.540Z,100312.91
2023-03-28T07:45:43.158Z,100308.03
2023-03-28T07:48:13.206Z,100329.19
2023-03-28T07:50:42.985Z,100331.06
2023-03-28T07:53:11.560Z,100320.59
2023-03-28T07:58:12.034Z,100337.34
2023-03-28T08:00:41.107Z,100342.16
2023-03-28T08:03:10.013Z,100349.47
2023-03-28T08:05:40.080Z,100353.91
2023-03-28T08:08:09.427Z,100355.22
2023-03-28T08:10:38.224Z,100349.63
2023-03-28T08:13:06.857Z,100357.47
2023-03-28T08:15:35.452Z,100360.06
2023-03-28T08:18:04.239Z,100375.63
2023-03-28T08:20:32.743Z,100368.06
2023-03-28T08:23:04.091Z,100378.88
2023-03-28T08:25:32.560Z,100371.22
2023-03-28T08:28:11.694Z,100380.13
2023-03-28T08:30:40.333Z,100384.00
2023-03-28T08:33:09.333Z,100381.13
2023-03-28T08:35:39.256Z,100373.16
2023-03-28T08:38:11.208Z,100379.16
2023-03-28T08:40:48.990Z,100353.31
2023-03-28T08:43:57.341Z,100377.84
2023-03-28T08:46:29.339Z,100372.34
2023-03-28T08:49:01.270Z,100371.41
2023-03-28T08:51:36.558Z,100390.94
2023-03-28T08:54:13.003Z,100389.88
2023-03-28T08:56:46.320Z,100396.16
2023-03-28T08:59:17.125Z,100390.44
2023-03-28T09:01:47.465Z,100384.41
2023-03-28T09:04:28.116Z,100390.44
2023-03-28T09:07:03.368Z,100404.88
2023-03-28T09:09:43.912Z,100398.78
2023-03-28T09:12:31.094Z,100383.34
2023-03-28T09:15:17.278Z,100366.03
2023-03-28T09:17:57.333Z,100395.47
2023-03-28T09:20:35.282Z,100397.84
2023-03-28T09:23:26.182Z,100424.03
2023-03-28T09:26:03.068Z,100418.63
2023-03-28T09:28:40.136Z,100417.69
2023-03-28T09:31:13.719Z,100422.47
2023-03-28T09:33:45.490Z,100432.00
2023-03-28T09:36:16.874Z,100420.38
2023-03-28T09:38:49.308Z,100437.81
2023-03-28T09:41:24.274Z,100438.16
2023-03-28T09:43:59.060Z,100455.91
2023-03-28T09:46:32.994Z,100463.75
2023-03-28T09:49:01.575Z,100483.84
2023-03-28T09:51:31.510Z,100469.47
2023-03-28T09:54:00.217Z,100469.59
2023-03-28T09:56:35.575Z,100446.47
2023-03-28T09:59:06.226Z,100462.00
2023-03-28T10:01:40.634Z,100469.19
2023-03-28T10:04:14.257Z,100465.50
2023-03-28T10:06:43.936Z,100471.06
2023-03-28T10:09:48.890Z,100469.97
2023-03-28T10:12:23.980Z,100461.56
2023-03-28T10:14:52.419Z,100483.22
2023-03-28T10:17:25.978Z,100472.38
2023-03-28T10:20:00.267Z,100479.44
2023-03-28T10:22:32.009Z,100475.47
2023-03-28T10:25:01.247Z,100491.81
2023-03-28T10:27:33.204Z,100479.81
2023-03-28T10:30:13.925Z,100480.94
2023-03-28T10:32:43.330Z,100466.56
2023-03-28T10:35:26.219Z,100479.28
2023-03-28T10:37:57.384Z,100491.66
2023-03-28T10:40:31.959Z,100479.47
2023-03-28T10:43:01.834Z,100490.28
2023-03-28T10:45:36.639Z,100475.75
2023-03-28T10:48:13.085Z,100487.53
2023-03-28T10:50:46.035Z,100485.66
2023-03-28T10:53:37.579Z,100479.78
2023-03-28T10:56:19.945Z,100494.59
2023-03-28T10:58:58.729Z,100489.44
2023-03-28T11:01:36.524Z,100516.00
2023-03-28T11:04:18.192Z,100500.41
2023-03-28T11:06:53.969Z,100503.50
2023-03-28T11:09:30.146Z,100494.38
2023-03-28T11:12:08.260Z,100487.03
2023-03-28T11:14:52.866Z,100498.88
2023-03-28T11:17:30.503Z,100502.25
2023-03-28T11:20:24.970Z,100521.53
2023-03-28T11:23:06.427Z,100517.00
2023-03-28T11:25:45.065Z,100498.81
2023-03-28T11:28:25.108Z,100517.69
2023-03-28T11:30:58.818Z,100542.63
2023-03-28T11:33:33.734Z,100531.69
2023-03-28T11:36:09.286Z,100510.75
2023-03-28T11:38:41.566Z,100533.91
2023-03-28T11:41:15.379Z,100551.75
2023-03-28T11:43:49.405Z,100550.31
2023-03-28T11:46:26.201Z,100555.72
2023-03-28T11:48:59.359Z,100560.75
2023-03-28T11:51:34.086Z,100562.31
2023-03-28T11:54:06.475Z,100551.69
2023-03-28T11:56:50.329Z,100562.91
2023-03-28T11:59:25.241Z,100583.84
2023-03-28T12:02:09.137Z,100582.47
2023-03-28T12:04:46.655Z,100575.53
2023-03-28T12:07:23.238Z,100575.06
2023-03-28T12:10:03.481Z,100586.59
2023-03-28T12:12:36.483Z,100576.09
2023-03-28T12:15:08.573Z,100585.25
2023-03-28T12:17:43.720Z,100566.69
2023-03-28T12:20:19.538Z,100559.63
2023-03-28T12:22:55.605Z,100559.28
2023-03-28T12:25:32.389Z,100556.38
2023-03-28T12:28:10.478Z,100557.78
2023-03-28T12:30:45.640Z,100555.13
2023-03-28T12:33:25.367Z,100562.09
2023-03-28T12:36:01.562Z,100589.28
2023-03-28T12:38:35.581Z,100595.38
2023-03-28T12:41:06.375Z,100584.38
2023-03-28T12:43:44.815Z,100587.47
2023-03-28T12:46:15.530Z,100576.09
2023-03-28T12:48:52.531Z,100586.16
2023-03-28T12:51:27.941Z,100590.59
2023-03-28T12:54:08.611Z,100593.00
2023-03-28T12:56:37.704Z,100589.56
2023-03-28T12:59:46.153Z,100590.94
2023-03-28T13:02:17.972Z,100615.81
2023-03-28T13:04:57.030Z,100591.41
2023-03-28T13:07:30.515Z,100581.66
2023-03-28T13:10:10.234Z,100581.59
2023-03-28T13:12:49.606Z,100568.34
2023-03-28T13:15:31.269Z,100568.00
2023-03-28T13:18:30.154Z,100559.19
2023-03-28T13:21:01.547Z,100587.66
2023-03-28T13:23:33.789Z,100568.13
2023-03-28T13:26:03.911Z,100580.97
2023-03-28T13:28:43.534Z,100587.38
2023-03-28T13:31:21.390Z,100605.25
2023-03-28T13:33:53.405Z,100620.63
2023-03-28T13:36:29.370Z,100619.13
2023-03-28T13:39:25.524Z,100609.94
2023-03-28T13:42:01.849Z,100609.75
2023-03-28T13:44:41.096Z,100589.78
2023-03-28T13:47:16.668Z,100595.81
2023-03-28T13:49:49.537Z,100617.94
2023-03-28T13:52:21.995Z,100609.75
2023-03-28T13:54:54.604Z,100612.00
2023-03-28T13:57:26.358Z,100611.53
2023-03-28T13:59:58.767Z,100608.47
2023-03-28T14:02:38.859Z,100623.91
2023-03-28T14:05:16.544Z,100610.31
2023-03-28T14:07:46.576Z,100610.78
2023-03-28T14:10:40.849Z,100620.03
2023-03-28T14:13:14.247Z,100619.59
2023-03-28T14:15:44.522Z,100614.34
2023-03-28T14:18:19.098Z,100625.78
2023-03-28T14:20:48.334Z,100624.88
2023-03-28T14:23:34.078Z,100632.31
2023-03-28T14:26:04.000Z,100632.81
2023-03-28T14:28:33.681Z,100631.88
2023-03-28T14:31:02.603Z,100637.03
2023-03-28T14:33:37.526Z,100628.34
2023-03-28T14:36:07.233Z,100618.78
2023-03-28T14:38:39.948Z,100627.38
2023-03-28T14:41:14.482Z,100638.25
2023-03-28T14:43:43.142Z,100635.34
2023-03-28T14:46:12.698Z,100618.66
2023-03-28T14:48:44.957Z,100622.53
2023-03-28T14:51:16.592Z,100632.41
2023-03-28T14:53:48.863Z,100637.88
2023-03-28T14:56:23.915Z,100647.94
2023-03-28T14:58:56.497Z,100649.66
2023-03-28T15:01:26.077Z,100655.75
2023-03-28T15:04:00.049Z,100666.47
2023-03-28T15:06:29.607Z,100655.09
2023-03-28T15:09:04.447Z,100668.53
2023-03-28T15:11:38.838Z,100653.63
2023-03-28T15:14:16.392Z,100664.88
2023-03-28T15:16:47.477Z,100657.34
2023-03-28T15:19:23.437Z,100667.19
2023-03-28T15:21:56.677Z,100665.47
2023-03-28T15:24:29.106Z,100676.56
2023-03-28T15:27:01.854Z,100677.94
2023-03-28T15:29:37.399Z,100683.09
2023-03-28T15:32:08.017Z,100680.31
2023-03-28T15:34:46.277Z,100690.09
2023-03-28T15:37:21.673Z,100687.25
2023-03-28T15:40:13.643Z,100688.09
2023-03-28T15:42:42.557Z,100706.59
2023-03-28T15:45:23.247Z,100695.03
2023-03-28T15:47:54.739Z,100711.47
2023-03-28T15:50:28.496Z,100707.56
2023-03-28T15:53:02.503Z,100724.28
2023-03-28T15:55:33.053Z,100709.94
2023-03-28T15:58:01.634Z,100709.31
2023-03-28T16:00:39.608Z,100715.50
2023-03-28T16:03:32.955Z,100715.81
2023-03-28T16:06:31.500Z,100725.91
2023-03-28T16:09:16.043Z,100729.88
2023-03-28T16:11:46.664Z,100726.31
2023-03-28T16:14:21.044Z,100736.31
2023-03-28T16:16:54.736Z,100734.72
2023-03-28T16:19:26.153Z,100728.28
2023-03-28T16:21:55.260Z,100734.78
2023-03-28T16:24:33.258Z,100742.78
2023-03-28T16:27:03.509Z,100744.69
2023-03-28T16:29:31.993Z,100745.84
2023-03-28T16:32:00.876Z,100738.50
2023-03-28T16:34:29.530Z,100753.22
2023-03-28T16:36:58.355Z,100748.66
2023-03-28T16:39:27.223Z,100764.78
2023-03-28T16:41:55.718Z,100763.19
2023-03-28T16:44:25.957Z,100769.56
2023-03-28T16:46:55.262Z,100754.00
2023-03-28T16:49:24.243Z,100780.84
2023-03-28T16:51:55.525Z,100770.88
2023-03-28T16:54:25.966Z,100775.19
2023-03-28T16:56:56.033Z,100777.47
2023-03-28T16:59:28.219Z,100782.88
2023-03-28T17:01:58.054Z,100781.56
2023-03-28T17:04:30.228Z,100776.81
2023-03-28T17:06:59.507Z,100782.03
2023-03-28T17:09:28.136Z,100784.09
2023-03-28T17:11:56.994Z,100789.34
2023-03-28T17:14:31.734Z,100779.69
2023-03-28T17:17:00.912Z,100781.84
2023-03-28T17:19:29.674Z,100805.50
2023-03-28T17:21:58.244Z,100798.69
2023-03-28T17:24:26.926Z,100794.38
2023-03-28T17:26:55.724Z,100802.97
2023-03-28T17:29:27.884Z,100804.47
2023-03-28T17:31:58.519Z,100805.22
2023-03-28T17:34:27.540Z,100800.81
2023-03-28T17:36:56.215Z,100812.53
2023-03-28T17:39:24.881Z,100815.81
2023-03-28T17:41:53.758Z,100819.00
2023-03-28T17:44:22.387Z,100826.56
2023-03-28T17:46:51.271Z,100817.78
2023-03-28T17:49:22.944Z,100818.16
2023-03-28T17:51:52.840Z,100828.25
2023-03-28T17:54:22.792Z,100831.06
2023-03-28T17:56:51.396Z,100832.56
2023-03-28T17:59:20.158Z,100838.56
2023-03-28T18:01:49.211Z,100838.72
2023-03-28T18:04:18.002Z,100846.22
2023-03-28T18:06:48.695Z,100852.19
2023-03-28T18:09:17.489Z,100848.66
2023-03-28T18:11:49.394Z,100843.03
2023-03-28T18:14:18.973Z,100841.03
2023-03-28T18:16:48.070Z,100846.97
2023-03-28T18:19:19.112Z,100849.59
2023-03-28T18:21:49.846Z,100859.19
2023-03-28T18:24:20.746Z,100860.25
2023-03-28T18:26:49.789Z,100869.78
2023-03-28T18:29:18.789Z,100871.06
2023-03-28T18:31:47.576Z,100868.47
2023-03-28T18:34:16.385Z,100867.88
2023-03-28T18:36:45.767Z,100875.75
2023-03-28T18:39:16.423Z,100874.06
2023-03-28T18:41:46.659Z,100864.13
2023-03-28T18:44:15.633Z,100868.50
2023-03-28T18:46:54.970Z,100879.66
2023-03-28T18:49:27.357Z,100878.31
2023-03-28T18:52:04.361Z,100881.09
2023-03-28T18:54:36.097Z,100879.00
2023-03-28T18:57:05.554Z,100879.19
2023-03-28T18:59:34.420Z,100889.66
2023-03-28T19:02:03.062Z,100887.97
2023-03-28T19:04:33.543Z,100886.53
2023-03-28T19:07:02.540Z,100888.16
2023-03-28T19:09:31.579Z,100891.00
2023-03-28T19:12:02.090Z,100884.44
2023-03-28T19:14:31.777Z,100883.66
2023-03-28T19:17:00.848Z,100897.63
2023-03-28T19:19:37.777Z,100881.06
2023-03-28T19:22:07.680Z,100884.78
2023-03-28T19:24:39.028Z,100876.44
2023-03-28T19:27:09.342Z,100883.59
2023-03-28T19:29:38.321Z,100874.06
2023-03-28T19:32:06.874Z,100877.69
2023-03-28T19:34:35.804Z,100881.06
2023-03-28T19:37:04.590Z,100879.53
2023-03-28T19:39:34.789Z,100889.31
2023-03-28T19:42:03.937Z,100892.38
2023-03-28T19:44:34.584Z,100884.59
2023-03-28T19:47:03.340Z,100876.34
2023-03-28T19:49:32.065Z,100885.88
2023-03-28T19:52:01.278Z,100890.69
2023-03-28T19:54:29.880Z,100881.41
2023-03-28T19:56:59.140Z,100884.69
2023-03-28T19:59:27.836Z,100894.38
2023-03-28T20:02:00.141Z,100886.72
2023-03-28T20:04:29.866Z,100891.13
2023-03-28T20:06:59.857Z,100887.81
2023-03-28T20:09:28.705Z,100891.34
2023-03-28T20:11:57.365Z,100887.97
2023-03-28T20:14:29.630Z,100887.31
2023-03-28T20:16:59.626Z,100880.56
2023-03-28T20:19:29.171Z,100877.28
2023-03-28T20:21:58.004Z,100881.34
2023-03-28T20:24:26.874Z,100891.75
2023-03-28T20:26:55.684Z,100879.13
2023-03-28T20:29:27.372Z,100881.47
2023-03-28T20:31:56.485Z,100885.47
2023-03-28T20:34:26.699Z,100874.06
2023-03-28T20:36:56.780Z,100874.06
2023-03-28T20:39:28.148Z,100883.25
2023-03-28T20:41:56.766Z,100873.47
2023-03-28T20:44:25.470Z,100878.03
2023-03-28T20:46:54.400Z,100877.50
2023-03-28T20:49:23.275Z,100869.50
2023-03-28T20:51:53.428Z,100872.28
2023-03-28T20:54:28.255Z,100875.13
2023-03-28T20:56:58.082Z,100873.00
2023-03-28T20:59:27.434Z,100877.13
2023-03-28T21:01:56.115Z,100878.81
2023-03-28T21:04:25.179Z,100881.66
2023-03-28T21:06:55.550Z,100883.50
2023-03-28T21:09:24.367Z,100878.44
2023-03-28T21:11:53.156Z,100884.66
2023-03-28T21:14:21.944Z,100878.75
2023-03-28T21:16:52.125Z,100877.56
2023-03-28T21:19:21.031Z,100879.41
2023-03-28T21:21:49.647Z,100887.63
2023-03-28T21:24:21.483Z,100887.94
2023-03-28T21:26:50.073Z,100882.94
2023-03-28T21:29:18.650Z,100908.59
2023-03-28T21:31:47.403Z,100898.53
2023-03-28T21:34:16.078Z,100899.78
2023-03-28T21:36:44.526Z,100904.22
2023-03-28T21:39:13.588Z,100887.44
2023-03-28T21:41:43.544Z,100901.00
2023-03-28T21:44:12.137Z,100900.31
2023-03-28T21:46:40.975Z,100904.84
2023-03-28T21:49:09.567Z,100899.91
2023-03-28T21:51:38.200Z,100908.66
2023-03-28T21:54:07.010Z,100900.53
2023-03-28T21:56:35.898Z,100893.22
2023-03-28T21:59:05.961Z,100909.16
2023-03-28T22:01:37.234Z,100919.44
2023-03-28T22:04:05.956Z,100913.56
2023-03-28T22:06:34.528Z,100900.88
2023-03-28T22:09:03.039Z,100919.44
2023-03-28T22:11:32.985Z,100909.47
2023-03-28T22:14:05.632Z,100924.44
2023-03-28T22:16:37.757Z,100914.28
2023-03-28T22:19:06.769Z,100916.28
2023-03-28T22:21:35.385Z,100915.56
2023-03-28T22:24:06.497Z,100913.88
2023-03-28T22:26:36.203Z,100909.38
2023-03-28T22:29:05.360Z,100906.66
2023-03-28T22:31:35.663Z,100917.88
2023-03-28T22:34:04.421Z,100915.41
2023-03-28T22:36:33.004Z,100913.72
2023-03-28T22:39:01.493Z,100910.47
2023-03-28T22:41:32.040Z,100914.00
2023-03-28T22:44:00.921Z,100905.69
2023-03-28T22:46:30.288Z,100902.19
2023-03-28T22:49:00.319Z,100907.09
2023-03-28T22:51:30.125Z,100913.31
2023-03-28T22:54:02.069Z,100906.31
2023-03-28T22:56:30.919Z,100906.47
2023-03-28T22:59:01.549Z,100893.59
2023-03-28T23:01:30.398Z,100896.47
2023-03-28T23:04:00.841Z,100902.56
2023-03-28T23:06:29.384Z,100888.31
2023-03-28T23:08:58.860Z,100892.75
2023-03-28T23:11:27.765Z,100886.00
2023-03-28T23:13:56.734Z,100882.56
2023-03-28T23:16:25.422Z,100885.84
2023-03-28T23:18:53.971Z,100884.53
2023-03-28T23:21:24.697Z,100882.63
2023-03-28T23:23:54.086Z,100894.81
2023-03-28T23:26:22.799Z,100865.94
2023-03-28T23:28:51.641Z,100891.44
2023-03-28T23:31:20.089Z,100886.28
2023-03-28T23:33:48.766Z,100888.19
2023-03-28T23:36:20.947Z,100888.25
2023-03-28T23:38:51.315Z,100867.72
2023-03-28T23:41:19.788Z,100864.44
2023-03-28T23:43:48.314Z,100872.88
2023-03-28T23:46:17.216Z,100879.75
2023-03-28T23:48:46.291Z,100870.44
2023-03-28T23:51:14.867Z,100885.97
2023-03-28T23:53:43.453Z,100869.84
2023-03-28T23:56:13.660Z,100881.00
2023-03-28T23:58:42.166Z,100882.81
